sensor_id;sensor_type;location;lat;lon;timestamp;pressure;altitude;pressure_sealevel;temperature;humidity
21153;BME280;10734;44.792;20.482;2023-07-31T06:38:53;99825.88;;;22.07;nan
21153;BME280;10734;44.792;20.482;2023-07-31T06:41:20;99822.00;;;22.17;nan
21153;BME280;10734;44.792;20.482;2023-07-31T06:43:46;99824.47;;;21.94;nan
21153;BME280;10734;44.792;20.482;2023-07-31T06:46:13;99820.59;;;22.13;nan
21153;BME280;10734;44.792;20.482;2023-07-31T06:48:40;99811.47;;;22.72;nan
21153;BME280;10734;44.792;20.482;2023-07-31T06:51:07;99812.34;;;22.64;nan
21153;BME280;10734;44.792;20.482;2023-07-31T06:53:33;99804.09;;;22.72;nan
21153;BME280;10734;44.792;20.482;2023-07-31T06:56:00;99803.44;;;23.11;nan
21153;BME280;10734;44.792;20.482;2023-07-31T06:58:27;99805.31;;;23.35;nan
21153;BME280;10734;44.792;20.482;2023-07-31T07:00:54;99808.09;;;23.27;nan
21153;BME280;10734;44.792;20.482;2023-07-31T07:03:21;99807.72;;;23.22;nan
21153;BME280;10734;44.792;20.482;2023-07-31T07:05:47;99802.03;;;23.40;nan
21153;BME280;10734;44.792;20.482;2023-07-31T07:08:14;99804.72;;;23.64;nan
21153;BME280;10734;44.792;20.482;2023-07-31T07:10:41;99798.91;;;24.06;nan
21153;BME280;10734;44.792;20.482;2023-07-31T07:13:08;99798.56;;;24.01;nan
21153;BME280;10734;44.792;20.482;2023-07-31T07:15:35;99798.06;;;23.42;nan
21153;BME280;10734;44.792;20.482;2023-07-31T07:18:01;99805.88;;;23.86;nan
21153;BME280;10734;44.792;20.482;2023-07-31T07:20:29;99804.41;;;24.06;nan
21153;BME280;10734;44.792;20.482;2023-07-31T07:22:56;99800.28;;;24.42;nan
21153;BME280;10734;44.792;20.482;2023-07-31T07:25:23;99808.44;;;24.81;nan
21153;BME280;10734;44.792;20.482;2023-07-31T07:27:50;99803.34;;;24.16;nan
21153;BME280;10734;44.792;20.482;2023-07-31T07:30:17;99808.28;;;24.51;nan
21153;BME280;10734;44.792;20.482;2023-07-31T07:32:44;99818.50;;;24.66;nan
21153;BME280;10734;44.792;20.482;2023-07-31T07:35:11;99811.63;;;24.70;nan
21153;BME280;10734;44.792;20.482;2023-07-31T07:37:38;99811.78;;;24.68;nan
21153;BME280;10734;44.792;20.482;2023-07-31T07:40:05;99813.50;;;24.92;nan
21153;BME280;10734;44.792;20.482;2023-07-31T07:42:32;99804.94;;;24.87;nan
21153;BME280;10734;44.792;20.482;2023-07-31T07:44:59;99808.72;;;24.86;nan
21153;BME280;10734;44.792;20.482;2023-07-31T07:47:26;99813.81;;;25.20;nan
21153;BME280;10734;44.792;20.482;2023-07-31T07:49:54;99810.44;;;25.10;nan
21153;BME280;10734;44.792;20.482;2023-07-31T07:52:21;99811.91;;;24.98;nan
21153;BME280;10734;44.792;20.482;2023-07-31T07:54:48;99815.03;;;24.95;nan
21153;BME280;10734;44.792;20.482;2023-07-31T07:57:14;99816.31;;;24.84;nan
21153;BME280;10734;44.792;20.482;2023-07-31T07:59:41;99820.75;;;24.70;nan
21153;BME280;10734;44.792;20.482;2023-07-31T08:02:08;99812.38;;;24.55;nan
21153;BME280;10734;44.792;20.482;2023-07-31T08:04:35;99807.91;;;24.63;nan
21153;BME280;10734;44.792;20.482;2023-07-31T08:07:02;99813.69;;;24.91;nan
21153;BME280;10734;44.792;20.482;2023-07-31T08:09:29;99813.22;;;24.87;nan
21153;BME280;10734;44.792;20.482;2023-07-31T08:11:55;99811.22;;;25.19;nan
21153;BME280;10734;44.792;20.482;2023-07-31T08:14:24;99818.81;;;25.17;nan
21153;BME280;10734;44.792;20.482;2023-07-31T08:16:51;99812.94;;;25.20;nan
21153;BME280;10734;44.792;20.482;2023-07-31T08:19:18;99822.13;;;25.12;nan
21153;BME280;10734;44.792;20.482;2023-07-31T08:21:45;99822.59;;;24.93;nan
21153;BME280;10734;44.792;20.482;2023-07-31T08:24:11;99833.22;;;25.04;nan
21153;BME280;10734;44.792;20.482;2023-07-31T08:26:38;99827.81;;;25.11;nan
21153;BME280;10734;44.792;20.482;2023-07-31T08:29:05;99823.00;;;24.90;nan
21153;BME280;10734;44.792;20.482;2023-07-31T08:31:32;99826.66;;;24.82;nan
21153;BME280;10734;44.792;20.482;2023-07-31T08:33:59;99822.25;;;25.19;nan
21153;BME280;10734;44.792;20.482;2023-07-31T08:36:26;99818.78;;;25.40;nan
21153;BME280;10734;44.792;20.482;2023-07-31T08:38:55;99817.38;;;25.73;nan
21153;BME280;10734;44.792;20.482;2023-07-31T08:41:22;99818.53;;;25.94;nan
21153;BME280;10734;44.792;20.482;2023-07-31T08:43:49;99824.81;;;26.03;nan
21153;BME280;10734;44.792;20.482;2023-07-31T08:46:18;99820.41;;;26.08;nan
21153;BME280;10734;44.792;20.482;2023-07-31T08:48:47;99820.44;;;25.93;nan
21153;BME280;10734;44.792;20.482;2023-07-31T08:51:14;99826.97;;;26.22;nan
21153;BME280;10734;44.792;20.482;2023-07-31T08:53:42;99825.28;;;26.42;nan
21153;BME280;10734;44.792;20.482;2023-07-31T08:56:11;99822.50;;;26.94;nan
21153;BME280;10734;44.792;20.482;2023-07-31T08:58:40;99822.94;;;26.97;nan
21153;BME280;10734;44.792;20.482;2023-07-31T09:01:07;99823.81;;;26.98;nan
21153;BME280;10734;44.792;20.482;2023-07-31T09:03:34;99817.38;;;27.40;nan
21153;BME280;10734;44.792;20.482;2023-07-31T09:06:03;99830.69;;;27.08;nan
21153;BME280;10734;44.792;20.482;2023-07-31T09:08:32;99830.56;;;26.95;nan
21153;BME280;10734;44.792;20.482;2023-07-31T09:11:05;99830.56;;;27.17;nan
21153;BME280;10734;44.792;20.482;2023-07-31T09:13:32;99821.25;;;27.46;nan
21153;BME280;10734;44.792;20.482;2023-07-31T09:15:59;99814.03;;;27.45;nan
21153;BME280;10734;44.792;20.482;2023-07-31T09:18:26;99814.50;;;27.55;nan
21153;BME280;10734;44.792;20.482;2023-07-31T09:21:05;99809.63;;;27.92;nan
21153;BME280;10734;44.792;20.482;2023-07-31T09:23:46;99816.41;;;27.82;nan
21153;BME280;10734;44.792;20.482;2023-07-31T09:26:34;99809.31;;;27.17;nan
21153;BME280;10734;44.792;20.482;2023-07-31T09:29:04;99808.69;;;27.15;nan
21153;BME280;10734;44.792;20.482;2023-07-31T09:31:41;99805.97;;;27.50;nan
21153;BME280;10734;44.792;20.482;2023-07-31T09:34:09;99801.06;;;27.24;nan
21153;BME280;10734;44.792;20.482;2023-07-31T09:36:49;99805.75;;;26.59;nan
21153;BME280;10734;44.792;20.482;2023-07-31T09:39:17;99795.69;;;27.16;nan
21153;BME280;10734;44.792;20.482;2023-07-31T09:41:47;99800.03;;;27.88;nan
21153;BME280;10734;44.792;20.482;2023-07-31T09:44:14;99797.66;;;28.26;nan
21153;BME280;10734;44.792;20.482;2023-07-31T09:46:40;99798.97;;;27.82;nan
21153;BME280;10734;44.792;20.482;2023-07-31T09:49:11;99797.25;;;27.53;nan
21153;BME280;10734;44.792;20.482;2023-07-31T09:51:41;99802.53;;;27.76;nan
21153;BME280;10734;44.792;20.482;2023-07-31T09:54:14;99800.22;;;28.27;nan
21153;BME280;10734;44.792;20.482;2023-07-31T09:56:44;99805.44;;;27.68;nan
21153;BME280;10734;44.792;20.482;2023-07-31T09:59:13;99793.47;;;27.95;nan
21153;BME280;10734;44.792;20.482;2023-07-31T10:01:41;99803.56;;;27.75;nan
21153;BME280;10734;44.792;20.482;2023-07-31T10:04:12;99809.38;;;27.52;nan
21153;BME280;10734;44.792;20.482;2023-07-31T10:06:40;99807.31;;;27.60;nan
21153;BME280;10734;44.792;20.482;2023-07-31T10:09:10;99798.75;;;27.83;nan
21153;BME280;10734;44.792;20.482;2023-07-31T10:11:43;99809.00;;;27.90;nan
21153;BME280;10734;44.792;20.482;2023-07-31T10:14:13;99806.41;;;28.36;nan
21153;BME280;10734;44.792;20.482;2023-07-31T10:16:40;99808.06;;;28.79;nan
21153;BME280;10734;44.792;20.482;2023-07-31T10:19:08;99808.69;;;28.94;nan
21153;BME280;10734;44.792;20.482;2023-07-31T10:21:35;99811.91;;;28.77;nan
21153;BME280;10734;44.792;20.482;2023-07-31T10:24:04;99801.59;;;28.51;nan
21153;BME280;10734;44.792;20.482;2023-07-31T10:26:32;99802.94;;;28.14;nan
21153;BME280;10734;44.792;20.482;2023-07-31T10:29:01;99796.75;;;28.60;nan
21153;BME280;10734;44.792;20.482;2023-07-31T10:31:28;99797.19;;;28.70;nan
21153;BME280;10734;44.792;20.482;2023-07-31T10:33:57;99798.88;;;28.65;nan
21153;BME280;10734;44.792;20.482;2023-07-31T10:36:25;99796.47;;;27.94;nan
21153;BME280;10734;44.792;20.482;2023-07-31T10:38:55;99800.53;;;28.52;nan
21153;BME280;10734;44.792;20.482;2023-07-31T10:41:29;99791.06;;;29.28;nan
21153;BME280;10734;44.792;20.482;2023-07-31T10:43:59;99795.53;;;29.16;nan
21153;BME280;10734;44.792;20.482;2023-07-31T10:46:27;99794.41;;;28.97;nan
21153;BME280;10734;44.792;20.482;2023-07-31T10:49:02;99776.75;;;29.31;nan
21153;BME280;10734;44.792;20.482;2023-07-31T10:51:35;99786.97;;;29.51;nan
21153;BME280;10734;44.792;20.482;2023-07-31T10:54:13;99781.13;;;29.85;nan
21153;BME280;10734;44.792;20.482;2023-07-31T10:56:47;99780.16;;;29.27;nan
21153;BME280;10734;44.792;20.482;2023-07-31T10:59:16;99783.97;;;28.86;nan
21153;BME280;10734;44.792;20.482;2023-07-31T11:01:50;99776.72;;;29.38;nan
21153;BME280;10734;44.792;20.482;2023-07-31T11:04:27;99768.19;;;29.53;nan
21153;BME280;10734;44.792;20.482;2023-07-31T11:07:03;99767.97;;;29.47;nan
21153;BME280;10734;44.792;20.482;2023-07-31T11:09:32;99764.38;;;29.07;nan
21153;BME280;10734;44.792;20.482;2023-07-31T11:12:00;99772.44;;;29.68;nan
21153;BME280;10734;44.792;20.482;2023-07-31T11:14:26;99766.78;;;30.47;nan
21153;BME280;10734;44.792;20.482;2023-07-31T11:16:53;99773.13;;;30.60;nan
21153;BME280;10734;44.792;20.482;2023-07-31T11:19:24;99776.66;;;30.43;nan
21153;BME280;10734;44.792;20.482;2023-07-31T11:21:54;99772.59;;;30.45;nan
21153;BME280;10734;44.792;20.482;2023-07-31T11:24:22;99766.19;;;30.45;nan
21153;BME280;10734;44.792;20.482;2023-07-31T11:26:51;99772.91;;;30.62;nan
21153;BME280;10734;44.792;20.482;2023-07-31T11:29:19;99772.81;;;30.82;nan
21153;BME280;10734;44.792;20.482;2023-07-31T11:31:47;99765.66;;;31.18;nan
21153;BME280;10734;44.792;20.482;2023-07-31T11:34:15;99762.81;;;31.49;nan
21153;BME280;10734;44.792;20.482;2023-07-31T11:36:53;99760.97;;;31.62;nan
21153;BME280;10734;44.792;20.482;2023-07-31T11:39:20;99767.03;;;31.33;nan
21153;BME280;10734;44.792;20.482;2023-07-31T11:41:47;99770.22;;;31.37;nan
21153;BME280;10734;44.792;20.482;2023-07-31T11:44:14;99771.03;;;31.63;nan
21153;BME280;10734;44.792;20.482;2023-07-31T11:46:52;99757.38;;;30.86;nan
21153;BME280;10734;44.792;20.482;2023-07-31T11:49:19;99754.31;;;31.19;nan
21153;BME280;10734;44.792;20.482;2023-07-31T11:51:45;99764.28;;;31.52;nan
21153;BME280;10734;44.792;20.482;2023-07-31T11:54:12;99764.31;;;31.70;nan
21153;BME280;10734;44.792;20.482;2023-07-31T11:56:40;99752.91;;;31.28;nan
21153;BME280;10734;44.792;20.482;2023-07-31T11:59:07;99758.81;;;31.64;nan
21153;BME280;10734;44.792;20.482;2023-07-31T12:01:35;99756.16;;;31.32;nan
21153;BME280;10734;44.792;20.482;2023-07-31T12:04:02;99747.28;;;31.60;nan
21153;BME280;10734;44.792;20.482;2023-07-31T12:06:36;99757.88;;;31.26;nan
21153;BME280;10734;44.792;20.482;2023-07-31T12:09:04;99746.13;;;31.49;nan
21153;BME280;10734;44.792;20.482;2023-07-31T12:11:42;99752.13;;;31.90;nan
21153;BME280;10734;44.792;20.482;2023-07-31T12:14:27;99752.44;;;31.13;nan
21153;BME280;10734;44.792;20.482;2023-07-31T12:16:59;99750.91;;;30.92;nan
21153;BME280;10734;44.792;20.482;2023-07-31T12:19:26;99756.53;;;30.85;nan
21153;BME280;10734;44.792;20.482;2023-07-31T12:21:58;99742.00;;;31.33;nan
21153;BME280;10734;44.792;20.482;2023-07-31T12:24:28;99741.16;;;31.33;nan
21153;BME280;10734;44.792;20.482;2023-07-31T12:26:55;99749.53;;;31.70;nan
21153;BME280;10734;44.792;20.482;2023-07-31T12:29:22;99726.72;;;31.61;nan
21153;BME280;10734;44.792;20.482;2023-07-31T12:31:49;99733.91;;;31.50;nan
21153;BME280;10734;44.792;20.482;2023-07-31T12:34:17;99724.50;;;31.70;nan
21153;BME280;10734;44.792;20.482;2023-07-31T12:36:45;99730.81;;;31.58;nan
21153;BME280;10734;44.792;20.482;2023-07-31T12:39:12;99721.31;;;31.66;nan
21153;BME280;10734;44.792;20.482;2023-07-31T12:41:39;99722.06;;;31.37;nan
21153;BME280;10734;44.792;20.482;2023-07-31T12:44:06;99726.66;;;31.49;nan
21153;BME280;10734;44.792;20.482;2023-07-31T12:46:33;99722.00;;;31.43;nan
21153;BME280;10734;44.792;20.482;2023-07-31T12:49:00;99727.13;;;32.01;nan
21153;BME280;10734;44.792;20.482;2023-07-31T12:51:26;99717.19;;;32.24;nan
21153;BME280;10734;44.792;20.482;2023-07-31T12:53:53;99718.28;;;32.04;nan
21153;BME280;10734;44.792;20.482;2023-07-31T12:56:20;99714.97;;;32.26;nan
21153;BME280;10734;44.792;20.482;2023-07-31T12:58:47;99714.00;;;31.90;nan
21153;BME280;10734;44.792;20.482;2023-07-31T13:01:14;99708.94;;;31.62;nan
21153;BME280;10734;44.792;20.482;2023-07-31T13:03:41;99710.50;;;31.95;nan
21153;BME280;10734;44.792;20.482;2023-07-31T13:06:07;99709.66;;;31.94;nan
21153;BME280;10734;44.792;20.482;2023-07-31T13:08:34;99706.16;;;32.47;nan
21153;BME280;10734;44.792;20.482;2023-07-31T13:11:01;99703.91;;;32.91;nan
21153;BME280;10734;44.792;20.482;2023-07-31T13:13:28;99701.91;;;32.26;nan
21153;BME280;10734;44.792;20.482;2023-07-31T13:15:56;99699.97;;;32.57;nan
21153;BME280;10734;44.792;20.482;2023-07-31T13:18:22;99694.66;;;32.56;nan
21153;BME280;10734;44.792;20.482;2023-07-31T13:20:49;99696.59;;;32.55;nan
21153;BME280;10734;44.792;20.482;2023-07-31T13:23:16;99692.50;;;32.39;nan
21153;BME280;10734;44.792;20.482;2023-07-31T13:25:43;99689.84;;;32.86;nan
21153;BME280;10734;44.792;20.482;2023-07-31T13:28:09;99689.84;;;32.86;nan
21153;BME280;10734;44.792;20.482;2023-07-31T13:30:36;99690.91;;;31.83;nan
21153;BME280;10734;44.792;20.482;2023-07-31T13:33:03;99682.84;;;32.12;nan
21153;BME280;10734;44.792;20.482;2023-07-31T13:35:30;99686.63;;;32.47;nan
21153;BME280;10734;44.792;20.482;2023-07-31T13:37:58;99687.06;;;32.74;nan
21153;BME280;10734;44.792;20.482;2023-07-31T13:40:24;99677.09;;;32.67;nan
21153;BME280;10734;44.792;20.482;2023-07-31T13:42:51;99678.69;;;32.74;nan
21153;BME280;10734;44.792;20.482;2023-07-31T13:45:19;99674.28;;;32.67;nan
21153;BME280;10734;44.792;20.482;2023-07-31T13:47:45;99677.88;;;33.09;nan
21153;BME280;10734;44.792;20.482;2023-07-31T13:50:12;99676.88;;;32.92;nan
21153;BME280;10734;44.792;20.482;2023-07-31T13:52:39;99671.94;;;33.06;nan
21153;BME280;10734;44.792;20.482;2023-07-31T13:55:06;99671.91;;;32.82;nan
21153;BME280;10734;44.792;20.482;2023-07-31T13:57:33;99667.78;;;31.83;nan
21153;BME280;10734;44.792;20.482;2023-07-31T14:00:01;99675.00;;;31.53;nan
21153;BME280;10734;44.792;20.482;2023-07-31T14:02:28;99652.56;;;31.67;nan
21153;BME280;10734;44.792;20.482;2023-07-31T14:04:55;99666.03;;;31.88;nan
21153;BME280;10734;44.792;20.482;2023-07-31T14:07:22;99666.84;;;32.37;nan
21153;BME280;10734;44.792;20.482;2023-07-31T14:09:49;99672.25;;;32.32;nan
21153;BME280;10734;44.792;20.482;2023-07-31T14:12:15;99666.56;;;32.69;nan
21153;BME280;10734;44.792;20.482;2023-07-31T14:14:57;99666.03;;;32.18;nan
21153;BME280;10734;44.792;20.482;2023-07-31T14:17:24;99647.75;;;32.22;nan
21153;BME280;10734;44.792;20.482;2023-07-31T14:19:51;99660.97;;;32.81;nan
21153;BME280;10734;44.792;20.482;2023-07-31T14:22:28;99653.72;;;32.80;nan
21153;BME280;10734;44.792;20.482;2023-07-31T14:24:55;99659.41;;;32.73;nan
21153;BME280;10734;44.792;20.482;2023-07-31T14:27:22;99661.94;;;32.51;nan
21153;BME280;10734;44.792;20.482;2023-07-31T14:29:48;99651.31;;;32.95;nan
21153;BME280;10734;44.792;20.482;2023-07-31T14:32:15;99646.97;;;32.99;nan
21153;BME280;10734;44.792;20.482;2023-07-31T14:34:42;99647.19;;;32.32;nan
21153;BME280;10734;44.792;20.482;2023-07-31T14:37:08;99652.78;;;31.84;nan
21153;BME280;10734;44.792;20.482;2023-07-31T14:39:35;99647.94;;;31.61;nan
21153;BME280;10734;44.792;20.482;2023-07-31T14:42:05;99639.59;;;32.09;nan
21153;BME280;10734;44.792;20.482;2023-07-31T14:44:32;99640.28;;;32.35;nan
21153;BME280;10734;44.792;20.482;2023-07-31T14:46:59;99640.94;;;32.07;nan
21153;BME280;10734;44.792;20.482;2023-07-31T14:49:25;99641.09;;;32.65;nan
21153;BME280;10734;44.792;20.482;2023-07-31T14:51:55;99634.53;;;32.18;nan
21153;BME280;10734;44.792;20.482;2023-07-31T14:54:21;99628.56;;;31.84;nan
21153;BME280;10734;44.792;20.482;2023-07-31T14:56:48;99628.84;;;31.64;nan
21153;BME280;10734;44.792;20.482;2023-07-31T14:59:15;99623.44;;;31.99;nan
21153;BME280;10734;44.792;20.482;2023-07-31T15:01:42;99626.25;;;31.81;nan
21153;BME280;10734;44.792;20.482;2023-07-31T15:04:09;99623.34;;;32.06;nan
21153;BME280;10734;44.792;20.482;2023-07-31T15:06:35;99615.09;;;31.69;nan
21153;BME280;10734;44.792;20.482;2023-07-31T15:09:02;99619.69;;;31.75;nan
21153;BME280;10734;44.792;20.482;2023-07-31T15:11:29;99611.59;;;30.75;nan
21153;BME280;10734;44.792;20.482;2023-07-31T15:13:56;99611.47;;;30.63;nan
21153;BME280;10734;44.792;20.482;2023-07-31T15:16:23;99614.84;;;30.72;nan
21153;BME280;10734;44.792;20.482;2023-07-31T15:18:50;99614.44;;;30.69;nan
21153;BME280;10734;44.792;20.482;2023-07-31T15:21:16;99605.75;;;31.08;nan
21153;BME280;10734;44.792;20.482;2023-07-31T15:23:43;99606.78;;;31.32;nan
21153;BME280;10734;44.792;20.482;2023-07-31T15:26:10;99612.19;;;31.46;nan
21153;BME280;10734;44.792;20.482;2023-07-31T15:28:37;99609.19;;;31.77;nan
21153;BME280;10734;44.792;20.482;2023-07-31T15:31:05;99601.09;;;31.57;nan
21153;BME280;10734;44.792;20.482;2023-07-31T15:33:32;99602.00;;;31.15;nan
21153;BME280;10734;44.792;20.482;2023-07-31T15:35:58;99600.91;;;30.97;nan
21153;BME280;10734;44.792;20.482;2023-07-31T15:38:25;99607.34;;;31.16;nan
21153;BME280;10734;44.792;20.482;2023-07-31T15:40:52;99608.38;;;31.40;nan
21153;BME280;10734;44.792;20.482;2023-07-31T15:43:20;99611.44;;;31.87;nan
21153;BME280;10734;44.792;20.482;2023-07-31T15:45:47;99597.59;;;31.62;nan
21153;BME280;10734;44.792;20.482;2023-07-31T15:48:14;99604.19;;;31.31;nan
21153;BME280;10734;44.792;20.482;2023-07-31T15:50:41;99594.75;;;30.95;nan
21153;BME280;10734;44.792;20.482;2023-07-31T15:53:08;99601.34;;;31.19;nan
21153;BME280;10734;44.792;20.482;2023-07-31T15:55:34;99596.31;;;30.91;nan
21153;BME280;10734;44.792;20.482;2023-07-31T15:58:01;99592.06;;;30.89;nan
21153;BME280;10734;44.792;20.482;2023-07-31T16:00:28;99598.97;;;30.98;nan
21153;BME280;10734;44.792;20.482;2023-07-31T16:02:54;99597.72;;;31.37;nan
21153;BME280;10734;44.792;20.482;2023-07-31T16:05:21;99596.03;;;31.36;nan
21153;BME280;10734;44.792;20.482;2023-07-31T16:07:48;99594.13;;;30.93;nan
21153;BME280;10734;44.792;20.482;2023-07-31T16:10:15;99591.81;;;30.90;nan
21153;BME280;10734;44.792;20.482;2023-07-31T16:12:42;99593.63;;;30.28;nan
21153;BME280;10734;44.792;20.482;2023-07-31T16:15:09;99601.03;;;30.02;nan
21153;BME280;10734;44.792;20.482;2023-07-31T16:17:36;99605.28;;;29.73;nan
21153;BME280;10734;44.792;20.482;2023-07-31T16:20:03;99601.63;;;29.79;nan
21153;BME280;10734;44.792;20.482;2023-07-31T16:22:30;99598.31;;;29.51;nan
21153;BME280;10734;44.792;20.482;2023-07-31T16:24:57;99600.94;;;29.39;nan
21153;BME280;10734;44.792;20.482;2023-07-31T16:27:23;99600.31;;;29.37;nan
21153;BME280;10734;44.792;20.482;2023-07-31T16:29:51;99597.94;;;29.40;nan
21153;BME280;10734;44.792;20.482;2023-07-31T16:32:18;99601.47;;;29.67;nan
21153;BME280;10734;44.792;20.482;2023-07-31T16:34:45;99606.63;;;29.96;nan
21153;BME280;10734;44.792;20.482;2023-07-31T16:37:11;99600.78;;;29.72;nan
21153;BME280;10734;44.792;20.482;2023-07-31T16:39:38;99603.94;;;29.31;nan
21153;BME280;10734;44.792;20.482;2023-07-31T16:42:06;99603.84;;;29.06;nan
21153;BME280;10734;44.792;20.482;2023-07-31T16:44:33;99601.38;;;29.36;nan
21153;BME280;10734;44.792;20.482;2023-07-31T16:47:02;99600.19;;;28.98;nan
21153;BME280;10734;44.792;20.482;2023-07-31T16:49:29;99607.91;;;28.63;nan
21153;BME280;10734;44.792;20.482;2023-07-31T16:51:57;99594.94;;;28.70;nan
21153;BME280;10734;44.792;20.482;2023-07-31T16:54:24;99607.06;;;28.69;nan
21153;BME280;10734;44.792;20.482;2023-07-31T16:56:51;99605.16;;;28.57;nan
21153;BME280;10734;44.792;20.482;2023-07-31T16:59:25;99612.78;;;28.28;nan
21153;BME280;10734;44.792;20.482;2023-07-31T17:01:52;99612.56;;;28.03;nan
21153;BME280;10734;44.792;20.482;2023-07-31T17:04:19;99608.72;;;28.04;nan
21153;BME280;10734;44.792;20.482;2023-07-31T17:06:46;99613.81;;;27.94;nan
21153;BME280;10734;44.792;20.482;2023-07-31T17:09:13;99610.03;;;27.53;nan
21153;BME280;10734;44.792;20.482;2023-07-31T17:11:39;99612.19;;;27.51;nan
21153;BME280;10734;44.792;20.482;2023-07-31T17:14:06;99613.75;;;27.26;nan
21153;BME280;10734;44.792;20.482;2023-07-31T17:16:37;99607.16;;;26.92;nan
21153;BME280;10734;44.792;20.482;2023-07-31T17:19:03;99614.91;;;26.75;nan
21153;BME280;10734;44.792;20.482;2023-07-31T17:21:30;99614.69;;;26.49;nan
21153;BME280;10734;44.792;20.482;2023-07-31T17:23:57;99618.78;;;26.31;nan
21153;BME280;10734;44.792;20.482;2023-07-31T17:26:24;99619.38;;;26.27;nan
21153;BME280;10734;44.792;20.482;2023-07-31T17:28:51;99624.63;;;26.22;nan
21153;BME280;10734;44.792;20.482;2023-07-31T17:31:18;99622.56;;;26.02;nan
21153;BME280;10734;44.792;20.482;2023-07-31T17:33:44;99628.56;;;25.91;nan
21153;BME280;10734;44.792;20.482;2023-07-31T17:36:11;99622.78;;;25.71;nan
21153;BME280;10734;44.792;20.482;2023-07-31T17:38:38;99627.59;;;25.62;nan
21153;BME280;10734;44.792;20.482;2023-07-31T17:41:06;99632.19;;;25.55;nan
21153;BME280;10734;44.792;20.482;2023-07-31T17:43:34;99633.63;;;25.51;nan
21153;BME280;10734;44.792;20.482;2023-07-31T17:46:03;99632.09;;;25.48;nan
21153;BME280;10734;44.792;20.482;2023-07-31T17:48:31;99633.06;;;25.41;nan
21153;BME280;10734;44.792;20.482;2023-07-31T17:50:58;99634.94;;;25.40;nan
21153;BME280;10734;44.792;20.482;2023-07-31T17:53:25;99637.81;;;25.32;nan
21153;BME280;10734;44.792;20.482;2023-07-31T17:55:52;99636.19;;;25.23;nan
21153;BME280;10734;44.792;20.482;2023-07-31T17:58:19;99637.84;;;25.17;nan
21153;BME280;10734;44.792;20.482;2023-07-31T18:00:46;99640.28;;;25.12;nan
21153;BME280;10734;44.792;20.482;2023-07-31T18:03:12;99639.31;;;25.05;nan
21153;BME280;10734;44.792;20.482;2023-07-31T18:05:39;99642.19;;;24.97;nan
21153;BME280;10734;44.792;20.482;2023-07-31T18:08:06;99636.38;;;24.92;nan
21153;BME280;10734;44.792;20.482;2023-07-31T18:10:33;99633.50;;;24.85;nan
21153;BME280;10734;44.792;20.482;2023-07-31T18:13:03;99643.19;;;24.81;nan
21153;BME280;10734;44.792;20.482;2023-07-31T18:15:29;99636.16;;;24.78;nan
21153;BME280;10734;44.792;20.482;2023-07-31T18:17:56;99638.63;;;24.73;nan
21153;BME280;10734;44.792;20.482;2023-07-31T18:20:23;99635.41;;;24.70;nan
21153;BME280;10734;44.792;20.482;2023-07-31T18:22:50;99639.75;;;24.64;nan
21153;BME280;10734;44.792;20.482;2023-07-31T18:25:16;99640.97;;;24.62;nan
21153;BME280;10734;44.792;20.482;2023-07-31T18:27:43;99652.34;;;24.59;nan
21153;BME280;10734;44.792;20.482;2023-07-31T18:30:11;99651.72;;;24.57;nan
21153;BME280;10734;44.792;20.482;2023-07-31T18:32:38;99651.22;;;24.53;nan
21153;BME280;10734;44.792;20.482;2023-07-31T18:35:06;99652.63;;;24.49;nan
21153;BME280;10734;44.792;20.482;2023-07-31T18:37:32;99651.47;;;24.43;nan
21153;BME280;10734;44.792;20.482;2023-07-31T18:39:59;99651.66;;;24.42;nan
21153;BME280;10734;44.792;20.482;2023-07-31T18:42:26;99657.69;;;24.37;nan
21153;BME280;10734;44.792;20.482;2023-07-31T18:44:53;99661.84;;;24.33;nan
21153;BME280;10734;44.792;20.482;2023-07-31T18:47:19;99657.09;;;24.27;nan
21153;BME280;10734;44.792;20.482;2023-07-31T18:49:46;99663.63;;;24.26;nan
21153;BME280;10734;44.792;20.482;2023-07-31T18:52:13;99672.06;;;24.24;nan
21153;BME280;10734;44.792;20.482;2023-07-31T18:54:40;99666.75;;;24.23;nan
21153;BME280;10734;44.792;20.482;2023-07-31T18:57:06;99673.66;;;24.19;nan
21153;BME280;10734;44.792;20.482;2023-07-31T18:59:33;99674.88;;;24.16;nan
21153;BME280;10734;44.792;20.482;2023-07-31T19:02:00;99682.66;;;24.13;nan
21153;BME280;10734;44.792;20.482;2023-07-31T19:04:27;99675.25;;;24.13;nan
21153;BME280;10734;44.792;20.482;2023-07-31T19:06:53;99688.50;;;24.10;nan
21153;BME280;10734;44.792;20.482;2023-07-31T19:09:31;99687.16;;;24.05;nan
21153;BME280;10734;44.792;20.482;2023-07-31T19:11:59;99688.56;;;24.01;nan
21153;BME280;10734;44.792;20.482;2023-07-31T19:14:26;99687.88;;;23.99;nan
21153;BME280;10734;44.792;20.482;2023-07-31T19:16:53;99695.47;;;23.97;nan
21153;BME280;10734;44.792;20.482;2023-07-31T19:19:22;99687.56;;;23.94;nan
21153;BME280;10734;44.792;20.482;2023-07-31T19:21:49;99689.81;;;23.91;nan
21153;BME280;10734;44.792;20.482;2023-07-31T19:24:15;99691.06;;;23.88;nan
21153;BME280;10734;44.792;20.482;2023-07-31T19:26:42;99692.28;;;23.86;nan
21153;BME280;10734;44.792;20.482;2023-07-31T19:29:10;99693.31;;;23.84;nan
21153;BME280;10734;44.792;20.482;2023-07-31T19:31:38;99689.69;;;23.84;nan
21153;BME280;10734;44.792;20.482;2023-07-31T19:34:05;99688.34;;;23.80;nan
21153;BME280;10734;44.792;20.482;2023-07-31T19:36:32;99684.44;;;23.74;nan
21153;BME280;10734;44.792;20.482;2023-07-31T19:38:59;99689.41;;;23.71;nan
21153;BME280;10734;44.792;20.482;2023-07-31T19:41:26;99686.88;;;23.69;nan
21153;BME280;10734;44.792;20.482;2023-07-31T19:43:53;99680.50;;;23.69;nan
21153;BME280;10734;44.792;20.482;2023-07-31T19:46:20;99683.78;;;23.64;nan
21153;BME280;10734;44.792;20.482;2023-07-31T19:48:47;99685.16;;;23.60;nan
21153;BME280;10734;44.792;20.482;2023-07-31T19:51:14;99676.06;;;23.59;nan